»·PEaware :: N507PC KOLM-KBFI

N507PC :: KOLM-KBFI

FLIGHT INFORMATION

Flight Status: Arrived
Operator: Privately registered:
United States
More flights under this callsign
Pilot: Kpinzou T. (17479)
Aircraft: CESSNA 172 SKYHAWK
(C172)
More flights by this aircraft type
Origin: KOLM Olympia
United States
Destination: KBFI Boeing Field/King Co Intl
United States
More flights between these airports :: More routes between these airports
Route: +
File this flight plan on PilotEdge
Remarks:
Altitude:
(Current/Filed)
0ft
Speed:
(Current/Filed)
0kts
Departed: 17-Dec-17 03:58 PM
Arrived: 17-Dec-17 04:32 PM
Distance/Time
Traveled:
42nm/0:33
Distance/Time
To Go:
Arrived

Flight Plot

Page will automatically refresh every two minutes.

Flight plan parsing failed; only flown route is shown


Map Options




Map Legend


Flown Route
Filed Route
Departure Airport
Arrival Airport
Navaid (VOR, NDB)
Fix

Horizontal Profiles

Position Reports

Time Latitude Longitude Heading Altitude Ground
Speed
17-Dec-17 15:56 46.973346 -122.896613 322 201ft 0kts
17-Dec-17 15:57 46.973346 -122.896613 322 201ft 0kts
17-Dec-17 15:58 46.973346 -122.896613 322 201ft 0kts
17-Dec-17 15:59 46.975852 -122.900660 280 196ft 23kts
17-Dec-17 16:00 46.975992 -122.901413 275 195ft 0kts
17-Dec-17 16:01 46.975992 -122.901413 275 195ft 0kts
17-Dec-17 16:02 46.975992 -122.901413 275 195ft 0kts
17-Dec-17 16:03 46.975992 -122.901413 275 195ft 0kts
17-Dec-17 16:04 46.969580 -122.904608 191 201ft 84kts
17-Dec-17 16:05 46.948454 -122.904022 105 1039ft 99kts
17-Dec-17 16:06 46.951345 -122.863130 33 1506ft 114kts
17-Dec-17 16:07 46.980410 -122.845566 13 1987ft 116kts
17-Dec-17 16:08 47.012518 -122.837264 12 2385ft 117kts
17-Dec-17 16:09 47.042247 -122.819255 29 2855ft 110kts
17-Dec-17 16:10 47.066854 -122.796405 33 3473ft 110kts
17-Dec-17 16:11 47.094186 -122.768401 34 3518ft 125kts
17-Dec-17 16:12 47.121500 -122.739600 34 3518ft 126kts
17-Dec-17 16:13 47.146994 -122.712440 34 3510ft 102kts
17-Dec-17 16:14 47.169343 -122.688555 35 3508ft 97kts
17-Dec-17 16:15 47.191074 -122.665582 34 3508ft 96kts
17-Dec-17 16:16 47.212631 -122.642605 35 3509ft 96kts
17-Dec-17 16:17 47.234271 -122.619494 35 3509ft 96kts
17-Dec-17 16:18 47.255957 -122.596307 35 3510ft 96kts
17-Dec-17 16:19 47.277584 -122.573157 35 3510ft 96kts
17-Dec-17 16:20 47.299094 -122.550113 34 3511ft 96kts
17-Dec-17 16:21 47.320727 -122.526907 35 3511ft 96kts
17-Dec-17 16:22 47.340670 -122.521883 278 3303ft 84kts
17-Dec-17 16:23 47.343712 -122.553929 282 2936ft 79kts
17-Dec-17 16:24 47.357768 -122.570602 33 2555ft 68kts
17-Dec-17 16:25 47.370260 -122.546205 83 2116ft 78kts
17-Dec-17 16:26 47.390703 -122.530540 321 1487ft 82kts
17-Dec-17 16:27 47.405961 -122.526439 67 1124ft 65kts
17-Dec-17 16:28 47.411126 -122.501356 66 1185ft 87kts
17-Dec-17 16:29 47.422323 -122.461571 66 1704ft 109kts
17-Dec-17 16:30 47.433900 -122.419974 66 2302ft 109kts
17-Dec-17 16:31 47.454033 -122.384574 38 2354ft 118kts
17-Dec-17 16:32 47.479991 -122.356739 23 1875ft 115kts
17-Dec-17 16:33 47.510563 -122.357487 353 1348ft 109kts
17-Dec-17 16:34 47.539649 -122.366861 346 1191ft 106kts
17-Dec-17 16:35 47.556878 -122.346628 93 641ft 106kts
17-Dec-17 16:36 47.547082 -122.316975 150 184ft 70kts
17-Dec-17 16:37 47.534103 -122.305949 147 17ft 47kts
17-Dec-17 16:38 47.530499 -122.301958 80 17ft 0kts
17-Dec-17 16:39 47.530436 -122.299483 131 19ft 20kts
17-Dec-17 16:40 47.529810 -122.297818 38 21ft 0kts
17-Dec-17 16:41 47.529810 -122.297818 38 21ft 0kts
17-Dec-17 16:42 47.529810 -122.297818 38 21ft 0kts
17-Dec-17 16:43 47.529810 -122.297818 38 21ft 0kts
17-Dec-17 16:44 47.529810 -122.297818 38 21ft 0kts
17-Dec-17 16:45 47.529810 -122.297818 38 21ft 0kts
17-Dec-17 16:46 47.529810 -122.297818 38 21ft 0kts
17-Dec-17 16:47 47.529810 -122.297818 38 21ft 0kts
17-Dec-17 16:48 47.529810 -122.297818 38 21ft 0kts
17-Dec-17 16:49 47.529810 -122.297818 38 21ft 0kts
17-Dec-17 16:50 47.529810 -122.297818 38 21ft 0kts
17-Dec-17 16:51 47.529810 -122.297818 38 21ft 0kts
17-Dec-17 16:52 47.529810 -122.297818 38 21ft 0kts

Navigation Log

Ident Type
Flight plan parsing failed, navigation log unavailable